sensor_id;sensor_type;location;lat;lon;timestamp;pressure;altitude;pressure_sealevel;temperature;humidity
70976;BME280;58635;51.198;6.010;2023-02-12T00:11:26;103649.88;;;8.76;70.78
70976;BME280;58635;51.198;6.010;2023-02-12T00:13:58;103664.13;;;9.40;70.65
70976;BME280;58635;51.198;6.010;2023-02-12T00:16:26;103665.81;;;9.85;69.32
70976;BME280;58635;51.198;6.010;2023-02-12T00:18:58;103638.06;;;10.10;67.94
70976;BME280;58635;51.198;6.010;2023-02-12T00:21:29;103638.72;;;10.34;67.62
70976;BME280;58635;51.198;6.010;2023-02-12T00:23:55;103645.84;;;10.53;67.08
70976;BME280;58635;51.198;6.010;2023-02-12T00:26:21;103630.13;;;10.45;66.70
70976;BME280;58635;51.198;6.010;2023-02-12T00:28:51;103666.84;;;10.71;66.62
70976;BME280;58635;51.198;6.010;2023-02-12T00:31:22;103659.34;;;10.68;66.55
70976;BME280;58635;51.198;6.010;2023-02-12T00:33:56;103653.47;;;10.66;65.99
70976;BME280;58635;51.198;6.010;2023-02-12T00:36:24;103639.94;;;10.62;66.17
70976;BME280;58635;51.198;6.010;2023-02-12T00:38:52;103654.84;;;10.70;65.94
70976;BME280;58635;51.198;6.010;2023-02-12T00:41:18;103642.25;;;10.65;66.12
70976;BME280;58635;51.198;6.010;2023-02-12T00:43:44;103665.03;;;10.82;65.95
70976;BME280;58635;51.198;6.010;2023-02-12T00:46:10;103665.59;;;10.86;65.79
70976;BME280;58635;51.198;6.010;2023-02-12T00:48:36;103647.16;;;10.79;65.60
70976;BME280;58635;51.198;6.010;2023-02-12T00:51:02;103630.72;;;10.69;65.40
70976;BME280;58635;51.198;6.010;2023-02-12T00:53:31;103633.19;;;10.71;65.59
70976;BME280;58635;51.198;6.010;2023-02-12T00:56:00;103647.28;;;10.78;65.72
70976;BME280;58635;51.198;6.010;2023-02-12T00:58:26;103651.69;;;10.87;65.51
70976;BME280;58635;51.198;6.010;2023-02-12T01:00:52;103660.28;;;10.88;65.43
70976;BME280;58635;51.198;6.010;2023-02-12T01:03:18;103647.47;;;10.86;65.41
70976;BME280;58635;51.198;6.010;2023-02-12T01:05:44;103653.34;;;10.88;65.36
70976;BME280;58635;51.198;6.010;2023-02-12T01:08:13;103639.13;;;10.82;65.40
70976;BME280;58635;51.198;6.010;2023-02-12T01:10:40;103655.84;;;10.90;65.15
70976;BME280;58635;51.198;6.010;2023-02-12T01:13:06;103630.34;;;10.74;65.01
70976;BME280;58635;51.198;6.010;2023-02-12T01:15:32;103636.47;;;10.73;64.96
70976;BME280;58635;51.198;6.010;2023-02-12T01:17:57;103645.28;;;10.81;65.07
70976;BME280;58635;51.198;6.010;2023-02-12T01:20:24;103636.00;;;10.79;65.17
70976;BME280;58635;51.198;6.010;2023-02-12T01:22:50;103627.19;;;10.70;65.23
70976;BME280;58635;51.198;6.010;2023-02-12T01:25:16;103642.00;;;10.79;65.03
70976;BME280;58635;51.198;6.010;2023-02-12T01:27:42;103629.31;;;10.65;65.38
70976;BME280;58635;51.198;6.010;2023-02-12T01:30:10;103645.53;;;10.78;65.32
70976;BME280;58635;51.198;6.010;2023-02-12T01:32:36;103621.47;;;10.67;65.19
70976;BME280;58635;51.198;6.010;2023-02-12T01:35:02;103626.63;;;10.67;65.33
70976;BME280;58635;51.198;6.010;2023-02-12T01:37:30;103619.34;;;10.61;65.21
70976;BME280;58635;51.198;6.010;2023-02-12T01:39:55;103630.72;;;10.69;65.36
70976;BME280;58635;51.198;6.010;2023-02-12T01:42:23;103635.25;;;10.77;65.30
70976;BME280;58635;51.198;6.010;2023-02-12T01:47:36;103625.81;;;10.66;65.26
70976;BME280;58635;51.198;6.010;2023-02-12T01:50:03;103628.56;;;10.74;65.10
70976;BME280;58635;51.198;6.010;2023-02-12T01:52:32;103600.41;;;10.60;65.15
70976;BME280;58635;51.198;6.010;2023-02-12T01:55:00;103591.25;;;10.56;65.10
70976;BME280;58635;51.198;6.010;2023-02-12T01:57:29;103613.09;;;10.63;65.23
70976;BME280;58635;51.198;6.010;2023-02-12T01:59:56;103629.66;;;10.72;65.05
70976;BME280;58635;51.198;6.010;2023-02-12T02:02:24;103631.28;;;10.73;65.28
70976;BME280;58635;51.198;6.010;2023-02-12T02:04:53;103620.63;;;10.66;65.16
70976;BME280;58635;51.198;6.010;2023-02-12T02:07:20;103632.13;;;10.73;65.12
70976;BME280;58635;51.198;6.010;2023-02-12T02:09:45;103618.03;;;10.66;65.17
70976;BME280;58635;51.198;6.010;2023-02-12T02:12:11;103630.47;;;10.72;65.37
70976;BME280;58635;51.198;6.010;2023-02-12T02:14:57;103629.78;;;10.70;65.47
70976;BME280;58635;51.198;6.010;2023-02-12T02:17:50;103631.69;;;10.68;65.31
70976;BME280;58635;51.198;6.010;2023-02-12T02:31:39;103629.44;;;10.64;65.47
70976;BME280;58635;51.198;6.010;2023-02-12T02:34:28;103632.03;;;10.64;65.25
70976;BME280;58635;51.198;6.010;2023-02-12T02:37:17;103619.22;;;10.62;65.39
70976;BME280;58635;51.198;6.010;2023-02-12T02:39:51;103620.84;;;10.63;65.44
70976;BME280;58635;51.198;6.010;2023-02-12T02:42:26;103624.28;;;10.64;65.40
70976;BME280;58635;51.198;6.010;2023-02-12T02:45:01;103623.44;;;10.63;65.28
70976;BME280;58635;51.198;6.010;2023-02-12T02:47:40;103618.13;;;10.65;65.30
70976;BME280;58635;51.198;6.010;2023-02-12T02:50:14;103612.41;;;10.61;65.34
70976;BME280;58635;51.198;6.010;2023-02-12T02:53:00;103615.00;;;10.61;65.25
70976;BME280;58635;51.198;6.010;2023-02-12T02:55:31;103623.31;;;10.65;65.17
70976;BME280;58635;51.198;6.010;2023-02-12T02:58:05;103615.13;;;10.60;65.23
70976;BME280;58635;51.198;6.010;2023-02-12T03:03:04;103611.38;;;10.52;65.10
70976;BME280;58635;51.198;6.010;2023-02-12T03:05:36;103634.75;;;10.62;65.46
70976;BME280;58635;51.198;6.010;2023-02-12T03:08:08;103624.28;;;10.64;65.36
70976;BME280;58635;51.198;6.010;2023-02-12T03:10:43;103627.69;;;10.64;65.26
70976;BME280;58635;51.198;6.010;2023-02-12T03:13:16;103633.09;;;10.61;65.26
70976;BME280;58635;51.198;6.010;2023-02-12T03:15:50;103624.53;;;10.61;65.17
70976;BME280;58635;51.198;6.010;2023-02-12T03:18:23;103633.94;;;10.62;65.37
70976;BME280;58635;51.198;6.010;2023-02-12T03:20:54;103628.63;;;10.63;65.40
70976;BME280;58635;51.198;6.010;2023-02-12T03:23:25;103622.06;;;10.59;65.30
70976;BME280;58635;51.198;6.010;2023-02-12T03:26:15;103625.22;;;10.63;65.14
70976;BME280;58635;51.198;6.010;2023-02-12T03:28:42;103616.75;;;10.61;65.16
70976;BME280;58635;51.198;6.010;2023-02-12T03:36:51;103618.66;;;10.59;65.14
70976;BME280;58635;51.198;6.010;2023-02-12T03:44:56;103609.81;;;10.61;65.24
70976;BME280;58635;51.198;6.010;2023-02-12T03:47:32;103612.53;;;10.60;65.10
70976;BME280;58635;51.198;6.010;2023-02-12T03:50:09;103609.81;;;10.61;65.25
70976;BME280;58635;51.198;6.010;2023-02-12T03:52:38;103609.81;;;10.61;65.04
70976;BME280;58635;51.198;6.010;2023-02-12T03:55:04;103618.28;;;10.63;65.25
70976;BME280;58635;51.198;6.010;2023-02-12T03:57:32;103616.75;;;10.61;65.17
70976;BME280;58635;51.198;6.010;2023-02-12T04:00:04;103615.13;;;10.60;65.04
70976;BME280;58635;51.198;6.010;2023-02-12T04:02:30;103612.41;;;10.61;65.11
70976;BME280;58635;51.198;6.010;2023-02-12T04:04:56;103611.72;;;10.59;65.09
70976;BME280;58635;51.198;6.010;2023-02-12T04:07:21;103623.44;;;10.63;65.54
70976;BME280;58635;51.198;6.010;2023-02-12T04:09:47;103621.94;;;10.61;65.26
70976;BME280;58635;51.198;6.010;2023-02-12T04:12:32;103624.78;;;10.58;65.02
70976;BME280;58635;51.198;6.010;2023-02-12T04:23:40;103637.84;;;10.56;65.10
70976;BME280;58635;51.198;6.010;2023-02-12T04:31:30;103639.13;;;10.50;65.03
70976;BME280;58635;51.198;6.010;2023-02-12T04:34:17;103645.97;;;10.51;65.19
70976;BME280;58635;51.198;6.010;2023-02-12T04:36:58;103644.19;;;10.52;65.07
70976;BME280;58635;51.198;6.010;2023-02-12T04:39:28;103641.97;;;10.47;65.25
70976;BME280;58635;51.198;6.010;2023-02-12T04:41:58;103640.09;;;10.49;65.22
70976;BME280;58635;51.198;6.010;2023-02-12T04:44:25;103648.53;;;10.51;65.42
70976;BME280;58635;51.198;6.010;2023-02-12T04:46:52;103646.09;;;10.50;65.30
70976;BME280;58635;51.198;6.010;2023-02-12T04:49:19;103651.97;;;10.52;65.23
70976;BME280;58635;51.198;6.010;2023-02-12T04:51:46;103643.63;;;10.48;65.23
70976;BME280;58635;51.198;6.010;2023-02-12T04:54:13;103656.19;;;10.53;65.17
70976;BME280;58635;51.198;6.010;2023-02-12T04:56:39;103645.38;;;10.48;65.07
70976;BME280;58635;51.198;6.010;2023-02-12T04:59:05;103644.19;;;10.52;65.01
70976;BME280;58635;51.198;6.010;2023-02-12T05:01:32;103647.72;;;10.51;65.18
70976;BME280;58635;51.198;6.010;2023-02-12T05:03:58;103650.31;;;10.51;65.04
70976;BME280;58635;51.198;6.010;2023-02-12T05:06:24;103652.22;;;10.49;65.42
70976;BME280;58635;51.198;6.010;2023-02-12T05:08:51;103656.44;;;10.50;65.04
70976;BME280;58635;51.198;6.010;2023-02-12T05:11:17;103655.63;;;10.49;65.17
70976;BME280;58635;51.198;6.010;2023-02-12T05:13:42;103659.84;;;10.50;65.29
70976;BME280;58635;51.198;6.010;2023-02-12T05:16:10;103662.44;;;10.50;65.33
70976;BME280;58635;51.198;6.010;2023-02-12T05:18:35;103656.44;;;10.50;65.38
70976;BME280;58635;51.198;6.010;2023-02-12T05:21:03;103651.63;;;10.45;65.43
70976;BME280;58635;51.198;6.010;2023-02-12T05:23:30;103653.03;;;10.49;65.29
70976;BME280;58635;51.198;6.010;2023-02-12T05:26:00;103659.97;;;10.49;65.32
70976;BME280;58635;51.198;6.010;2023-02-12T05:28:26;103659.03;;;10.50;65.17
70976;BME280;58635;51.198;6.010;2023-02-12T05:30:52;103664.19;;;10.50;65.11
70976;BME280;58635;51.198;6.010;2023-02-12T05:33:17;103657.38;;;10.49;65.12
70976;BME280;58635;51.198;6.010;2023-02-12T05:35:43;103659.28;;;10.47;65.22
70976;BME280;58635;51.198;6.010;2023-02-12T05:38:08;103662.81;;;10.46;65.10
70976;BME280;58635;51.198;6.010;2023-02-12T05:40:34;103658.47;;;10.46;64.98
70976;BME280;58635;51.198;6.010;2023-02-12T05:43:00;103664.31;;;10.48;65.19
70976;BME280;58635;51.198;6.010;2023-02-12T05:45:25;103668.69;;;10.48;65.36
70976;BME280;58635;51.198;6.010;2023-02-12T05:47:53;103670.31;;;10.49;65.19
70976;BME280;58635;51.198;6.010;2023-02-12T05:50:18;103671.28;;;10.48;65.21
70976;BME280;58635;51.198;6.010;2023-02-12T05:52:44;103665.41;;;10.46;65.18
70976;BME280;58635;51.198;6.010;2023-02-12T05:55:09;103662.25;;;10.42;65.39
70976;BME280;58635;51.198;6.010;2023-02-12T05:57:35;103669.19;;;10.42;65.63
70976;BME280;58635;51.198;6.010;2023-02-12T06:00:00;103664.09;;;10.40;65.48
70976;BME280;58635;51.198;6.010;2023-02-12T06:02:26;103665.66;;;10.43;65.50
70976;BME280;58635;51.198;6.010;2023-02-12T06:04:53;103669.19;;;10.42;65.44
70976;BME280;58635;51.198;6.010;2023-02-12T06:07:21;103660.13;;;10.36;65.40
70976;BME280;58635;51.198;6.010;2023-02-12T06:09:50;103665.03;;;10.39;65.51
70976;BME280;58635;51.198;6.010;2023-02-12T06:12:16;103650.84;;;10.34;65.69
70976;BME280;58635;51.198;6.010;2023-02-12T06:14:44;103637.00;;;10.23;65.49
70976;BME280;58635;51.198;6.010;2023-02-12T06:17:09;103641.22;;;10.24;65.41
70976;BME280;58635;51.198;6.010;2023-02-12T06:19:35;103653.78;;;10.29;65.28
70976;BME280;58635;51.198;6.010;2023-02-12T06:22:01;103671.28;;;10.37;65.32
70976;BME280;58635;51.198;6.010;2023-02-12T06:24:27;103674.34;;;10.42;65.49
70976;BME280;58635;51.198;6.010;2023-02-12T06:26:52;103672.47;;;10.44;65.46
70976;BME280;58635;51.198;6.010;2023-02-12T06:29:19;103662.72;;;10.36;65.47
70976;BME280;58635;51.198;6.010;2023-02-12T06:31:47;103660.50;;;10.32;65.57
70976;BME280;58635;51.198;6.010;2023-02-12T06:34:13;103650.75;;;10.24;65.43
70976;BME280;58635;51.198;6.010;2023-02-12T06:36:43;103653.91;;;10.28;65.27
70976;BME280;58635;51.198;6.010;2023-02-12T06:39:11;103640.41;;;10.24;65.43
70976;BME280;58635;51.198;6.010;2023-02-12T06:41:38;103667.06;;;10.36;65.35
70976;BME280;58635;51.198;6.010;2023-02-12T06:44:04;103653.78;;;10.29;65.46
70976;BME280;58635;51.198;6.010;2023-02-12T06:46:30;103651.69;;;10.23;65.61
70976;BME280;58635;51.198;6.010;2023-02-12T06:48:57;103647.47;;;10.22;65.51
70976;BME280;58635;51.198;6.010;2023-02-12T06:51:23;103670.03;;;10.31;65.39
70976;BME280;58635;51.198;6.010;2023-02-12T06:53:50;103658.63;;;10.22;65.59
70976;BME280;58635;51.198;6.010;2023-02-12T06:56:26;103684.47;;;10.34;65.65
70976;BME280;58635;51.198;6.010;2023-02-12T06:58:57;103673.44;;;10.32;65.57
70976;BME280;58635;51.198;6.010;2023-02-12T07:01:27;103664.25;;;10.28;65.81
70976;BME280;58635;51.198;6.010;2023-02-12T07:03:55;103700.09;;;10.54;66.05
70976;BME280;58635;51.198;6.010;2023-02-12T07:06:22;103688.91;;;10.54;65.65
70976;BME280;58635;51.198;6.010;2023-02-12T07:08:48;103674.09;;;10.45;65.59
70976;BME280;58635;51.198;6.010;2023-02-12T07:11:17;103673.41;;;10.43;65.52
70976;BME280;58635;51.198;6.010;2023-02-12T07:13:44;103688.91;;;10.54;65.37
70976;BME280;58635;51.198;6.010;2023-02-12T07:16:14;103710.19;;;10.58;65.42
70976;BME280;58635;51.198;6.010;2023-02-12T07:18:41;103688.56;;;10.47;65.25
70976;BME280;58635;51.198;6.010;2023-02-12T07:21:08;103690.56;;;10.44;65.11
70976;BME280;58635;51.198;6.010;2023-02-12T07:23:34;103680.69;;;10.38;65.40
70976;BME280;58635;51.198;6.010;2023-02-12T07:26:05;103710.16;;;10.69;66.22
70976;BME280;58635;51.198;6.010;2023-02-12T07:28:34;103701.03;;;10.86;66.13
70976;BME280;58635;51.198;6.010;2023-02-12T07:31:23;103698.59;;;11.05;65.77
70976;BME280;58635;51.198;6.010;2023-02-12T07:33:52;103709.97;;;11.34;65.27
70976;BME280;58635;51.198;6.010;2023-02-12T07:36:29;103682.16;;;11.36;64.79
70976;BME280;58635;51.198;6.010;2023-02-12T07:38:58;103698.50;;;11.58;64.38
70976;BME280;58635;51.198;6.010;2023-02-12T07:41:47;103684.91;;;11.65;64.07
70976;BME280;58635;51.198;6.010;2023-02-12T07:44:14;103712.91;;;11.92;63.78
70976;BME280;58635;51.198;6.010;2023-02-12T07:46:47;103716.09;;;12.06;63.39
70976;BME280;58635;51.198;6.010;2023-02-12T07:49:17;103720.91;;;12.10;63.64
70976;BME280;58635;51.198;6.010;2023-02-12T07:51:43;103688.66;;;12.03;63.10
70976;BME280;58635;51.198;6.010;2023-02-12T07:54:10;103702.66;;;12.21;62.91
70976;BME280;58635;51.198;6.010;2023-02-12T07:56:37;103710.44;;;12.31;62.41
70976;BME280;58635;51.198;6.010;2023-02-12T07:59:20;103719.34;;;12.38;62.23
70976;BME280;58635;51.198;6.010;2023-02-12T08:01:51;103705.03;;;12.44;62.20
70976;BME280;58635;51.198;6.010;2023-02-12T08:04:25;103721.28;;;12.55;62.18
70976;BME280;58635;51.198;6.010;2023-02-12T08:07:07;103698.72;;;12.46;61.83
70976;BME280;58635;51.198;6.010;2023-02-12T08:09:38;103702.00;;;12.48;61.61
70976;BME280;58635;51.198;6.010;2023-02-12T08:12:03;103719.94;;;12.61;61.57
70976;BME280;58635;51.198;6.010;2023-02-12T08:14:29;103705.59;;;12.57;61.36
70976;BME280;58635;51.198;6.010;2023-02-12T08:17:16;103701.06;;;12.59;61.13
70976;BME280;58635;51.198;6.010;2023-02-12T08:19:50;103716.53;;;12.70;60.98
70976;BME280;58635;51.198;6.010;2023-02-12T08:22:18;103716.38;;;12.72;60.84
70976;BME280;58635;51.198;6.010;2023-02-12T08:25:09;103708.44;;;12.64;60.59
70976;BME280;58635;51.198;6.010;2023-02-12T08:27:42;103708.03;;;12.49;60.79
70976;BME280;58635;51.198;6.010;2023-02-12T08:30:31;103708.09;;;12.28;60.85
70976;BME280;58635;51.198;6.010;2023-02-12T08:32:56;103741.34;;;12.34;60.93
70976;BME280;58635;51.198;6.010;2023-02-12T08:35:22;103722.41;;;12.13;61.15
70976;BME280;58635;51.198;6.010;2023-02-12T08:37:49;103715.53;;;12.02;61.05
70976;BME280;58635;51.198;6.010;2023-02-12T08:40:17;103718.69;;;11.96;61.46
70976;BME280;58635;51.198;6.010;2023-02-12T08:42:51;103724.69;;;11.96;61.27
70976;BME280;58635;51.198;6.010;2023-02-12T08:45:28;103755.28;;;12.03;61.77
70976;BME280;58635;51.198;6.010;2023-02-12T08:47:54;103727.59;;;11.82;61.59
70976;BME280;58635;51.198;6.010;2023-02-12T08:50:22;103732.09;;;11.80;61.79
70976;BME280;58635;51.198;6.010;2023-02-12T08:52:48;103751.44;;;11.97;61.65
70976;BME280;58635;51.198;6.010;2023-02-12T08:55:13;103749.91;;;11.94;61.54
70976;BME280;58635;51.198;6.010;2023-02-12T08:57:40;103738.41;;;11.87;61.70
70976;BME280;58635;51.198;6.010;2023-02-12T09:00:07;103744.16;;;11.91;61.74
70976;BME280;58635;51.198;6.010;2023-02-12T09:02:32;103754.84;;;11.97;61.81
70976;BME280;58635;51.198;6.010;2023-02-12T09:05:06;103740.56;;;11.82;61.92
70976;BME280;58635;51.198;6.010;2023-02-12T09:07:32;103757.94;;;11.91;61.91
70976;BME280;58635;51.198;6.010;2023-02-12T09:09:57;103750.03;;;11.93;61.91
70976;BME280;58635;51.198;6.010;2023-02-12T09:12:23;103749.34;;;11.91;62.05
70976;BME280;58635;51.198;6.010;2023-02-12T09:14:48;103750.84;;;11.93;62.15
70976;BME280;58635;51.198;6.010;2023-02-12T09:17:14;103744.28;;;11.89;62.02
70976;BME280;58635;51.198;6.010;2023-02-12T09:19:39;103755.91;;;11.95;62.14
70976;BME280;58635;51.198;6.010;2023-02-12T09:22:10;103743.63;;;11.87;62.35
70976;BME280;58635;51.198;6.010;2023-02-12T09:24:39;103758.00;;;12.01;62.11
70976;BME280;58635;51.198;6.010;2023-02-12T09:27:04;103755.13;;;12.04;62.10
70976;BME280;58635;51.198;6.010;2023-02-12T09:29:30;103723.00;;;11.86;62.13
70976;BME280;58635;51.198;6.010;2023-02-12T09:31:56;103729.41;;;11.91;61.93
70976;BME280;58635;51.198;6.010;2023-02-12T09:34:24;103726.56;;;11.94;61.75
70976;BME280;58635;51.198;6.010;2023-02-12T09:36:49;103754.91;;;12.17;61.85
70976;BME280;58635;51.198;6.010;2023-02-12T09:39:15;103758.78;;;12.22;61.49
70976;BME280;58635;51.198;6.010;2023-02-12T09:42:21;103728.00;;;12.08;61.55
70976;BME280;58635;51.198;6.010;2023-02-12T09:45:38;103761.50;;;12.30;61.80
70976;BME280;58635;51.198;6.010;2023-02-12T09:47:54;103761.28;;;12.34;61.53
70976;BME280;58635;51.198;6.010;2023-02-12T09:52:57;103757.88;;;12.43;61.08
70976;BME280;58635;51.198;6.010;2023-02-12T09:55:28;103757.75;;;12.44;60.98
70976;BME280;58635;51.198;6.010;2023-02-12T09:57:54;103768.69;;;12.48;60.96
70976;BME280;58635;51.198;6.010;2023-02-12T10:00:27;103769.22;;;12.51;61.06
70976;BME280;58635;51.198;6.010;2023-02-12T10:02:57;103767.31;;;12.53;61.10
70976;BME280;58635;51.198;6.010;2023-02-12T10:05:28;103762.94;;;12.54;60.91
70976;BME280;58635;51.198;6.010;2023-02-12T10:16:13;103781.00;;;12.65;60.65
70976;BME280;58635;51.198;6.010;2023-02-12T10:27:06;103767.50;;;12.71;60.76
70976;BME280;58635;51.198;6.010;2023-02-12T10:29:37;103771.59;;;12.74;60.37
70976;BME280;58635;51.198;6.010;2023-02-12T10:32:09;103769.81;;;12.74;60.59
70976;BME280;58635;51.198;6.010;2023-02-12T10:34:37;103764.91;;;12.71;60.71
70976;BME280;58635;51.198;6.010;2023-02-12T10:39:52;103774.06;;;12.75;60.52
70976;BME280;58635;51.198;6.010;2023-02-12T10:42:29;103767.78;;;12.78;60.48
70976;BME280;58635;51.198;6.010;2023-02-12T10:44:58;103770.94;;;12.81;60.30
70976;BME280;58635;51.198;6.010;2023-02-12T10:47:24;103769.84;;;12.84;60.46
70976;BME280;58635;51.198;6.010;2023-02-12T10:50:00;103764.38;;;12.87;60.40
70976;BME280;58635;51.198;6.010;2023-02-12T10:55:35;103765.75;;;12.91;60.37
70976;BME280;58635;51.198;6.010;2023-02-12T10:58:04;103766.44;;;12.93;60.15
70976;BME280;58635;51.198;6.010;2023-02-12T11:00:41;103767.41;;;12.92;60.35
70976;BME280;58635;51.198;6.010;2023-02-12T11:05:36;103759.19;;;12.97;60.13
70976;BME280;58635;51.198;6.010;2023-02-12T11:08:03;103764.09;;;13.00;59.87
70976;BME280;58635;51.198;6.010;2023-02-12T11:10:34;103769.97;;;13.02;60.01
70976;BME280;58635;51.198;6.010;2023-02-12T11:13:02;103761.38;;;13.01;60.02
70976;BME280;58635;51.198;6.010;2023-02-12T11:15:45;103754.00;;;13.06;59.74
70976;BME280;58635;51.198;6.010;2023-02-12T11:18:21;103762.19;;;13.11;59.90
70976;BME280;58635;51.198;6.010;2023-02-12T11:20:52;103752.63;;;13.12;59.68
70976;BME280;58635;51.198;6.010;2023-02-12T11:23:32;103752.66;;;13.22;59.60
70976;BME280;58635;51.198;6.010;2023-02-12T11:26:04;103749.09;;;13.23;59.57
70976;BME280;58635;51.198;6.010;2023-02-12T11:28:34;103751.00;;;13.21;59.32
70976;BME280;58635;51.198;6.010;2023-02-12T11:31:20;103750.19;;;13.20;59.27
70976;BME280;58635;51.198;6.010;2023-02-12T11:34:06;103743.47;;;13.17;59.02
70976;BME280;58635;51.198;6.010;2023-02-12T11:36:35;103734.44;;;13.22;59.25
70976;BME280;58635;51.198;6.010;2023-02-12T11:39:01;103736.50;;;13.28;58.97
70976;BME280;58635;51.198;6.010;2023-02-12T11:44:40;103731.56;;;13.44;58.71
70976;BME280;58635;51.198;6.010;2023-02-12T11:47:10;103728.50;;;13.49;58.58
70976;BME280;58635;51.198;6.010;2023-02-12T11:49:51;103729.91;;;13.53;58.44
70976;BME280;58635;51.198;6.010;2023-02-12T11:52:23;103728.94;;;13.54;58.30
70976;BME280;58635;51.198;6.010;2023-02-12T11:54:51;103728.34;;;13.60;58.19
70976;BME280;58635;51.198;6.010;2023-02-12T11:57:37;103724.69;;;13.62;57.85
70976;BME280;58635;51.198;6.010;2023-02-12T12:00:16;103728.91;;;13.63;57.75
70976;BME280;58635;51.198;6.010;2023-02-12T12:06:04;103721.78;;;13.65;57.60
70976;BME280;58635;51.198;6.010;2023-02-12T12:11:20;103708.94;;;13.64;56.99
70976;BME280;58635;51.198;6.010;2023-02-12T12:17:22;103702.31;;;13.69;56.59
70976;BME280;58635;51.198;6.010;2023-02-12T12:19:55;103697.13;;;13.69;56.56
70976;BME280;58635;51.198;6.010;2023-02-12T12:25:25;103694.63;;;13.78;56.17
70976;BME280;58635;51.198;6.010;2023-02-12T12:30:40;103693.94;;;13.85;56.05
70976;BME280;58635;51.198;6.010;2023-02-12T12:38:50;103676.91;;;13.91;56.04
70976;BME280;58635;51.198;6.010;2023-02-12T12:41:40;103679.22;;;13.94;55.97
70976;BME280;58635;51.198;6.010;2023-02-12T12:49:37;103667.97;;;13.93;55.89
70976;BME280;58635;51.198;6.010;2023-02-12T12:52:30;103674.41;;;13.99;55.80
70976;BME280;58635;51.198;6.010;2023-02-12T13:01:14;103665.69;;;14.08;55.59
70976;BME280;58635;51.198;6.010;2023-02-12T13:09:30;103650.34;;;14.15;55.56
70976;BME280;58635;51.198;6.010;2023-02-12T13:17:34;103642.00;;;14.11;55.83
70976;BME280;58635;51.198;6.010;2023-02-12T13:20:41;103634.06;;;14.13;55.48
70976;BME280;58635;51.198;6.010;2023-02-12T13:23:51;103631.44;;;14.13;55.37
70976;BME280;58635;51.198;6.010;2023-02-12T13:26:48;103634.88;;;14.13;55.39
70976;BME280;58635;51.198;6.010;2023-02-12T13:29:23;103639.41;;;14.11;55.57
70976;BME280;58635;51.198;6.010;2023-02-12T13:31:57;103631.44;;;14.13;55.48
70976;BME280;58635;51.198;6.010;2023-02-12T13:34:26;103629.66;;;14.13;55.37
70976;BME280;58635;51.198;6.010;2023-02-12T13:36:56;103628.03;;;14.12;55.31
70976;BME280;58635;51.198;6.010;2023-02-12T13:39:31;103634.47;;;14.08;55.45
70976;BME280;58635;51.198;6.010;2023-02-12T13:44:53;103618.50;;;14.03;55.36
70976;BME280;58635;51.198;6.010;2023-02-12T13:50:39;103632.06;;;13.97;55.70
70976;BME280;58635;51.198;6.010;2023-02-12T13:52:48;103628.53;;;13.98;55.73
70976;BME280;58635;51.198;6.010;2023-02-12T13:55:25;103621.59;;;13.89;55.54
70976;BME280;58635;51.198;6.010;2023-02-12T14:03:25;103619.84;;;13.80;55.92
70976;BME280;58635;51.198;6.010;2023-02-12T14:08:47;103624.81;;;13.73;55.95
70976;BME280;58635;51.198;6.010;2023-02-12T14:11:19;103623.47;;;13.69;55.99
70976;BME280;58635;51.198;6.010;2023-02-12T14:13:53;103621.03;;;13.67;55.94
70976;BME280;58635;51.198;6.010;2023-02-12T14:16:34;103621.03;;;13.67;56.02
70976;BME280;58635;51.198;6.010;2023-02-12T14:24:53;103621.06;;;13.58;55.95
70976;BME280;58635;51.198;6.010;2023-02-12T14:46:42;103621.69;;;13.42;55.68
70976;BME280;58635;51.198;6.010;2023-02-12T14:48:46;103627.56;;;13.44;55.74
70976;BME280;58635;51.198;6.010;2023-02-12T14:51:46;103603.81;;;13.29;55.69
70976;BME280;58635;51.198;6.010;2023-02-12T14:54:48;103615.97;;;13.38;55.76
70976;BME280;58635;51.198;6.010;2023-02-12T14:57:37;103591.22;;;13.25;55.62
70976;BME280;58635;51.198;6.010;2023-02-12T15:02:44;103593.28;;;13.21;55.71
70976;BME280;58635;51.198;6.010;2023-02-12T15:05:19;103590.03;;;13.19;55.60
70976;BME280;58635;51.198;6.010;2023-02-12T15:08:02;103582.06;;;13.11;55.46
70976;BME280;58635;51.198;6.010;2023-02-12T15:10:41;103613.63;;;13.26;55.48
70976;BME280;58635;51.198;6.010;2023-02-12T15:13:38;103576.06;;;13.10;55.40
70976;BME280;58635;51.198;6.010;2023-02-12T15:16:50;103612.72;;;13.27;55.46
70976;BME280;58635;51.198;6.010;2023-02-12T15:22:38;103597.00;;;13.19;55.27
70976;BME280;58635;51.198;6.010;2023-02-12T15:25:15;103567.06;;;13.05;55.36
70976;BME280;58635;51.198;6.010;2023-02-12T15:27:45;103588.91;;;13.12;55.38
70976;BME280;58635;51.198;6.010;2023-02-12T15:30:16;103577.97;;;13.08;55.16
70976;BME280;58635;51.198;6.010;2023-02-12T15:32:43;103586.16;;;13.13;55.16
70976;BME280;58635;51.198;6.010;2023-02-12T15:35:38;103598.88;;;13.16;55.27
70976;BME280;58635;51.198;6.010;2023-02-12T15:38:39;103561.22;;;12.93;55.31
70976;BME280;58635;51.198;6.010;2023-02-12T15:41:56;103582.66;;;13.05;55.29
70976;BME280;58635;51.198;6.010;2023-02-12T15:47:18;103583.75;;;13.02;55.41
70976;BME280;58635;51.198;6.010;2023-02-12T15:50:31;103577.91;;;12.91;55.50
70976;BME280;58635;51.198;6.010;2023-02-12T15:52:56;103569.97;;;12.82;55.72
70976;BME280;58635;51.198;6.010;2023-02-12T15:55:52;103566.16;;;12.77;55.55
70976;BME280;58635;51.198;6.010;2023-02-12T15:59:14;103560.28;;;12.75;55.45
70976;BME280;58635;51.198;6.010;2023-02-12T16:02:15;103592.78;;;12.88;55.77
70976;BME280;58635;51.198;6.010;2023-02-12T16:04:59;103579.56;;;12.82;55.60
70976;BME280;58635;51.198;6.010;2023-02-12T16:07:50;103570.00;;;12.73;55.82
70976;BME280;58635;51.198;6.010;2023-02-12T16:10:22;103582.69;;;12.85;55.77